DAL1556 KDTW-KBOS
Flight info
| Callsign | DAL1556 |
|---|---|
| Flight time | N/A |
| Altitude | 41000 |
| Route | CRL068030 PONCT JFUND2 KBOS |
| Aircraft | A359/H-SDE2E3GHIJ3J4J5LM1ORWXY/LB1D1 |
Departure
| Time | N/A |
|---|---|
| Airport | Detroit Metropolitan Wayne County Airport (KDTW) |
Arrival
| Time | 2026-05-07 02:01 |
|---|---|
| Airport | Boston Logan International Airport (KBOS) |
| Time | Latitude | Longitude | Altitude | Speed | Heading |
|---|---|---|---|---|---|
| 2026-05-07 01:53 | 42.66152 | -71.03549 | 5292 ft | 218 kts | 133° |
| 2026-05-07 01:53 | 42.65220 | -71.01935 | 5025 ft | 217 kts | 132° |
| 2026-05-07 01:53 | 42.64306 | -71.00309 | 4732 ft | 216 kts | 131° |
| 2026-05-07 01:54 | 42.63403 | -70.98678 | 4468 ft | 215 kts | 131° |
| 2026-05-07 01:54 | 42.62511 | -70.97052 | 4186 ft | 214 kts | 131° |
| 2026-05-07 01:54 | 42.61624 | -70.95429 | 4010 ft | 213 kts | 131° |
| 2026-05-07 01:54 | 42.60739 | -70.93809 | 3985 ft | 214 kts | 131° |
| 2026-05-07 01:55 | 42.59851 | -70.92186 | 3989 ft | 214 kts | 131° |
| 2026-05-07 01:55 | 42.58868 | -70.90701 | 3983 ft | 208 kts | 148° |
| 2026-05-07 01:55 | 42.58031 | -70.90190 | 3990 ft | 194 kts | 180° |
| 2026-05-07 01:55 | 42.56795 | -70.90502 | 4013 ft | 178 kts | 211° |
| 2026-05-07 01:56 | 42.55668 | -70.91190 | 3899 ft | 175 kts | 209° |
| 2026-05-07 01:56 | 42.54551 | -70.91765 | 3701 ft | 170 kts | 205° |
| 2026-05-07 01:56 | 42.53439 | -70.92290 | 3418 ft | 169 kts | 207° |
| 2026-05-07 01:56 | 42.52347 | -70.92819 | 3156 ft | 164 kts | 207° |
| 2026-05-07 01:57 | 42.51294 | -70.93332 | 2932 ft | 158 kts | 207° |
| 2026-05-07 01:57 | 42.50270 | -70.93833 | 2719 ft | 155 kts | 208° |
| 2026-05-07 01:57 | 42.49261 | -70.94317 | 2521 ft | 152 kts | 208° |
| 2026-05-07 01:57 | 42.48277 | -70.94797 | 2329 ft | 148 kts | 208° |
| 2026-05-07 01:58 | 42.47355 | -70.95243 | 2121 ft | 135 kts | 208° |
| 2026-05-07 01:58 | 42.46483 | -70.95668 | 1957 ft | 133 kts | 209° |
| 2026-05-07 01:58 | 42.45619 | -70.96089 | 1773 ft | 131 kts | 208° |
| 2026-05-07 01:58 | 42.44767 | -70.96501 | 1612 ft | 126 kts | 208° |
| 2026-05-07 01:59 | 42.43972 | -70.96886 | 1442 ft | 116 kts | 208° |
| 2026-05-07 01:59 | 42.43219 | -70.97254 | 1294 ft | 116 kts | 207° |
| 2026-05-07 01:59 | 42.42459 | -70.97623 | 1122 ft | 116 kts | 206° |
| 2026-05-07 01:59 | 42.41703 | -70.97987 | 968 ft | 118 kts | 205° |
| 2026-05-07 02:00 | 42.40921 | -70.98345 | 760 ft | 119 kts | 203° |
| 2026-05-07 02:00 | 42.40149 | -70.98748 | 606 ft | 120 kts | 202° |
| 2026-05-07 02:00 | 42.39368 | -70.99119 | 434 ft | 118 kts | 201° |
| 2026-05-07 02:00 | 42.38588 | -70.99494 | 313 ft | 120 kts | 201° |
| 2026-05-07 02:01 | 42.37806 | -70.99877 | 156 ft | 120 kts | 200° |
| 2026-05-07 02:01 | 42.37023 | -71.00252 | 38 ft | 117 kts | 199° |
| 2026-05-07 02:01 | 42.36369 | -71.00572 | 32 ft | 69 kts | 200° |
| 2026-05-07 02:01 | 42.36192 | -71.00658 | 32 ft | 0 kts | 200° |
| 2026-05-07 02:02 | 42.36190 | -71.00659 | 32 ft | 2 kts | 200° |
| 2026-05-07 02:02 | 42.35998 | -71.00778 | 32 ft | 47 kts | 225° |
| 2026-05-07 02:02 | 42.35893 | -71.00956 | 32 ft | 0 kts | 229° |
| 2026-05-07 02:03 | 42.35890 | -71.00961 | 32 ft | 5 kts | 229° |
| 2026-05-07 02:03 | 42.35839 | -71.01059 | 32 ft | 15 kts | 247° |
| 2026-05-07 02:04 | 42.35838 | -71.01188 | 32 ft | 15 kts | 277° |
| 2026-05-07 02:04 | 42.35857 | -71.01363 | 32 ft | 21 kts | 279° |
| 2026-05-07 02:04 | 42.35898 | -71.01537 | 32 ft | 14 kts | 321° |
| 2026-05-07 02:04 | 42.35958 | -71.01523 | 30 ft | 10 kts | 27° |
| 2026-05-07 02:05 | 42.36031 | -71.01481 | 32 ft | 13 kts | 20° |
| 2026-05-07 02:05 | 42.36132 | -71.01432 | 32 ft | 17 kts | 20° |
| 2026-05-07 02:05 | 42.36259 | -71.01371 | 32 ft | 21 kts | 20° |
| 2026-05-07 02:05 | 42.36409 | -71.01298 | 32 ft | 24 kts | 18° |
| 2026-05-07 02:06 | 42.36575 | -71.01218 | 32 ft | 28 kts | 19° |
| 2026-05-07 02:06 | 42.36768 | -71.01142 | 32 ft | 29 kts | 352° |
| 2026-05-07 02:06 | 42.36909 | -71.01303 | 32 ft | 27 kts | 314° |
| 2026-05-07 02:06 | 42.37045 | -71.01491 | 32 ft | 25 kts | 314° |
| 2026-05-07 02:07 | 42.37149 | -71.01628 | 32 ft | 22 kts | 316° |
| 2026-05-07 02:07 | 42.37285 | -71.01905 | 32 ft | 6 kts | 206° |
| 2026-05-07 02:07 | 42.37237 | -71.01921 | 32 ft | 8 kts | 171° |
| 2026-05-07 02:08 | 42.37183 | -71.01891 | 32 ft | 9 kts | 169° |
| 2026-05-07 02:08 | 42.37134 | -71.01912 | 32 ft | 8 kts | 207° |
| 2026-05-07 02:08 | 42.37107 | -71.01932 | 32 ft | 0 kts | 210° |